Ics Integrity — C6DK8 — position and weather

sailwx.info

Track history (hours):
 
Tides and Currents Weather Stations Pressure Air Temp Water Temp Dewpoint Dewpoint Depression Visibility Wind Speed Wind Dir Waves Ship Positions

Ics Integrity

Last reported at 2018-May-19 16:00 UTC. Time now 2018-May-27 21:27 UTC.
Position S 38°22' E 148°47'.
Warning: this ship's position is 8 days out of date.

Length 112 m; draft 6.2 m.

Type: Tanker. MMSI: 311000706.

Date/timePositionNaut miles runAvg speedWind from/ knotsBaromVisibWave heightAir tempDewpointWater temp
2018-May-19 16:00S 38°22' E 148°47'3 5.0
2018-May-19 15:30S 38°21' E 148°50'287 7.7
2018-May-18 02:24S 34°04' E 151°28'3 8.1
2018-May-18 02:00S 34°01' E 151°29'4 7.9
2018-May-18 01:30S 33°57' E 151°30'4 8.2
2018-May-18 01:00S 33°55' E 151°26'510.0
2018-May-18 00:30S 33°52' E 151°21'5 9.2
2018-May-18 00:00S 33°50' E 151°16'2 0.0
2018-May-15 23:27S 33°51' E 151°15'3 7.4
2018-May-15 23:00S 33°50' E 151°19'4 8.0
2018-May-15 22:30S 33°51' E 151°23'3 6.2
2018-May-15 22:00S 33°54' E 151°22'3 6.6
2018-May-15 21:30S 33°57' E 151°22'1 1.5
2018-May-15 21:00S 33°58' E 151°22'2 4.0
2018-May-15 20:30S 33°56' E 151°22'2 4.0
2018-May-15 20:00S 33°54' E 151°23'2 4.1
2018-May-15 19:30S 33°56' E 151°22'3 6.2
2018-May-15 19:00S 33°59' E 151°22'1 2.1
2018-May-15 18:30S 33°58' E 151°22'3 5.0
2018-May-15 18:00S 33°56' E 151°23'1 2.4
2018-May-15 17:30S 33°57' E 151°22'3 5.9
2018-May-15 17:00S 33°60' E 151°22'3 5.9
2018-May-15 16:30S 34°03' E 151°21'3 6.1
2018-May-15 16:00S 34°06' E 151°20'2 1.3
2018-May-15 14:24S 34°08' E 151°19'2 5.1
2018-May-15 14:00S 34°06' E 151°20'3 5.3
2018-May-15 13:30S 34°03' E 151°21'3 5.4
2018-May-15 13:00S 34°00' E 151°21'3 5.4
2018-May-15 12:30S 33°58' E 151°22'3 5.3
2018-May-15 12:00S 33°55' E 151°22'0 0.7
2018-May-15 11:30S 33°55' E 151°22'3 6.1
2018-May-15 11:00S 33°59' E 151°22'3 6.1
2018-May-15 10:30S 34°02' E 151°21'3 6.2
2018-May-15 10:00S 34°05' E 151°20'4 0.2
2018-May-14 10:43S 34°08' E 151°19'1 3.7
2018-May-14 10:28S 34°07' E 151°20'0 0.5
2018-May-14 09:59S 34°07' E 151°20'  
2018-May-09 21:29S 37°51' E 144°56'4 6.3
2018-May-09 20:55S 37°54' E 144°54'0 0.1
2018-May-09 18:51S 37°54' E 144°55'0 0.0
2018-May-09 18:27S 37°54' E 144°55'0 0.0
2018-May-09 17:18S 37°54' E 144°55'0 0.0
2018-May-09 17:00S 37°54' E 144°55'0 0.0
2018-May-09 16:15S 37°54' E 144°55'0 0.1
2018-May-09 16:00S 37°54' E 144°55'  
Track history (hours):
 
Tides and Currents Weather Stations Pressure Air Temp Water Temp Dewpoint Dewpoint Depression Visibility Wind Speed Wind Dir Waves Ship Positions

Ics Integrity

Last reported at 2018-May-19 16:00 UTC. Time now 2018-May-27 21:27 UTC.
Position S 38°22' E 148°47'.
Warning: this ship's position is 8 days out of date.

Length 112 m; draft 6.2 m.

Type: Tanker. MMSI: 311000706.

Date/timePositionNaut miles runAvg speedWind from/ knotsBaromVisibWave heightAir tempDewpointWater temp
2018-May-19 16:00S 38°22' E 148°47'3 5.0
2018-May-19 15:30S 38°21' E 148°50'287 7.7
2018-May-18 02:24S 34°04' E 151°28'3 8.1
2018-May-18 02:00S 34°01' E 151°29'4 7.9
2018-May-18 01:30S 33°57' E 151°30'4 8.2
2018-May-18 01:00S 33°55' E 151°26'510.0
2018-May-18 00:30S 33°52' E 151°21'5 9.2
2018-May-18 00:00S 33°50' E 151°16'2 0.0
2018-May-15 23:27S 33°51' E 151°15'3 7.4
2018-May-15 23:00S 33°50' E 151°19'4 8.0
2018-May-15 22:30S 33°51' E 151°23'3 6.2
2018-May-15 22:00S 33°54' E 151°22'3 6.6
2018-May-15 21:30S 33°57' E 151°22'1 1.5
2018-May-15 21:00S 33°58' E 151°22'2 4.0
2018-May-15 20:30S 33°56' E 151°22'2 4.0
2018-May-15 20:00S 33°54' E 151°23'2 4.1
2018-May-15 19:30S 33°56' E 151°22'3 6.2
2018-May-15 19:00S 33°59' E 151°22'1 2.1
2018-May-15 18:30S 33°58' E 151°22'3 5.0
2018-May-15 18:00S 33°56' E 151°23'1 2.4
2018-May-15 17:30S 33°57' E 151°22'3 5.9
2018-May-15 17:00S 33°60' E 151°22'3 5.9
2018-May-15 16:30S 34°03' E 151°21'3 6.1
2018-May-15 16:00S 34°06' E 151°20'2 1.3
2018-May-15 14:24S 34°08' E 151°19'2 5.1
2018-May-15 14:00S 34°06' E 151°20'3 5.3
2018-May-15 13:30S 34°03' E 151°21'3 5.4
2018-May-15 13:00S 34°00' E 151°21'3 5.4
2018-May-15 12:30S 33°58' E 151°22'3 5.3
2018-May-15 12:00S 33°55' E 151°22'0 0.7
2018-May-15 11:30S 33°55' E 151°22'3 6.1
2018-May-15 11:00S 33°59' E 151°22'3 6.1
2018-May-15 10:30S 34°02' E 151°21'3 6.2
2018-May-15 10:00S 34°05' E 151°20'4 0.2
2018-May-14 10:43S 34°08' E 151°19'1 3.7
2018-May-14 10:28S 34°07' E 151°20'0 0.5
2018-May-14 09:59S 34°07' E 151°20'  
2018-May-09 21:29S 37°51' E 144°56'4 6.3
2018-May-09 20:55S 37°54' E 144°54'0 0.1
2018-May-09 18:51S 37°54' E 144°55'0 0.0
2018-May-09 18:27S 37°54' E 144°55'0 0.0
2018-May-09 17:18S 37°54' E 144°55'0 0.0
2018-May-09 17:00S 37°54' E 144°55'0 0.0
2018-May-09 16:15S 37°54' E 144°55'0 0.1
2018-May-09 16:00S 37°54' E 144°55'  

Dump ship's entire track history